Time;durP1;ratioP1;P1;durP2;ratioP2;P2;SDS_P1;SDS_P2;PMS_P1;PMS_P2;Temp;Humidity;BMP_temperature;BMP_pressure;BME280_temperature;BME280_humidity;BME280_pressure;Samples;Min_cycle;Max_cycle;Signal;HPM_P1;HPM_P2
2021/09/02 00:00:51;;;;;;;;;5.00;3.00;;;;;26.10;37.99;102468.53;5078689;27;46493;-72
2021/09/02 00:03:16;;;;;;;;;5.00;3.00;;;;;26.15;38.18;102468.88;5078714;27;45319;-71
2021/09/02 00:05:41;;;;;;;;;4.25;3.00;;;;;26.15;38.03;102472.34;5078176;28;45658;-72
2021/09/02 00:08:07;;;;;;;;;3.25;3.25;;;;;26.20;38.43;102479.03;5078789;27;45309;-71
2021/09/02 00:10:34;;;;;;;;;3.00;3.00;;;;;26.15;38.10;102475.00;5078464;27;46404;-71
2021/09/02 00:12:59;;;;;;;;;2.50;2.00;;;;;26.16;38.16;102466.03;5078442;27;45302;-72
2021/09/02 00:15:25;;;;;;;;;3.00;3.00;;;;;26.17;38.32;102456.19;5078658;27;45666;-72
2021/09/02 00:17:50;;;;;;;;;3.75;3.00;;;;;26.15;38.14;102451.00;5077851;28;45329;-72
2021/09/02 00:20:16;;;;;;;;;4.25;3.00;;;;;26.17;38.21;102454.38;5078419;27;45430;-71
2021/09/02 00:22:41;;;;;;;;;2.25;2.25;;;;;26.24;38.45;102467.00;5077693;27;45489;-72
2021/09/02 00:25:07;;;;;;;;;2.25;2.25;;;;;26.23;38.00;102463.50;5078620;27;45456;-72
2021/09/02 00:27:33;;;;;;;;;4.50;3.00;;;;;26.22;37.85;102461.00;5078434;27;45357;-72
2021/09/02 00:29:58;;;;;;;;;2.00;2.00;;;;;26.12;38.16;102438.03;5073252;28;45367;-72
2021/09/02 00:32:23;;;;;;;;;2.75;2.75;;;;;26.22;38.33;102456.50;5078513;27;45557;-72
2021/09/02 00:34:49;;;;;;;;;2.25;2.25;;;;;26.19;38.26;102446.19;5077995;27;45490;-71
2021/09/02 00:37:14;;;;;;;;;3.00;2.00;;;;;26.27;38.00;102458.66;5078557;27;45333;-72
2021/09/02 00:39:39;;;;;;;;;4.00;2.00;;;;;26.20;38.02;102439.84;5078117;27;45634;-72
2021/09/02 00:42:05;;;;;;;;;3.50;3.50;;;;;26.23;38.11;102444.81;5077025;27;45465;-71
2021/09/02 00:44:42;;;;;;;;;5.00;4.00;;;;;26.23;38.07;102449.34;5077994;27;45586;-72
2021/09/02 00:47:13;;;;;;;;;2.00;2.00;;;;;26.27;38.24;102448.84;5078085;27;45499;-71
2021/09/02 00:49:39;;;;;;;;;3.00;3.00;;;;;26.24;38.14;102440.31;5077762;27;46866;-72
2021/09/02 00:52:28;;;;;;;;;3.00;2.50;;;;;26.31;38.46;102451.97;5059630;28;45530;-72
2021/09/02 00:54:57;;;;;;;;;4.00;3.25;;;;;26.28;38.20;102452.34;5064784;27;46015;-71
2021/09/02 00:57:25;;;;;;;;;3.00;2.75;;;;;26.31;38.31;102457.31;5077849;27;45522;-71
2021/09/02 00:59:56;;;;;;;;;5.50;3.50;;;;;26.23;38.28;102436.00;5077010;28;45377;-71
2021/09/02 01:02:27;;;;;;;;;4.25;3.50;;;;;26.29;38.31;102451.31;5059357;28;45510;-72
2021/09/02 01:04:54;;;;;;;;;3.50;3.00;;;;;26.28;38.64;102452.34;5077786;27;45467;-72
2021/09/02 01:07:22;;;;;;;;;4.75;3.50;;;;;26.23;38.71;102442.16;5077794;27;45304;-72
2021/09/02 01:09:48;;;;;;;;;2.25;2.25;;;;;26.32;38.49;102453.66;5077358;27;45309;-71
2021/09/02 01:12:32;;;;;;;;;4.75;3.25;;;;;26.33;38.56;102455.34;5077254;27;45630;-72
2021/09/02 01:15:18;;;;;;;;;3.00;3.00;;;;;26.31;38.36;102448.50;5077102;28;45369;-72
2021/09/02 01:17:46;;;;;;;;;2.25;2.25;;;;;26.31;38.43;102449.31;5075013;28;45243;-72
2021/09/02 01:20:16;;;;;;;;;3.75;3.00;;;;;26.29;38.14;102445.97;5077184;27;46698;-72
2021/09/02 01:22:43;;;;;;;;;1.50;1.50;;;;;26.25;38.59;102436.66;5077474;27;45345;-72
2021/09/02 01:25:13;;;;;;;;;2.75;2.75;;;;;26.32;38.37;102437.66;5077117;27;45503;-71
2021/09/02 01:27:39;;;;;;;;;2.75;2.00;;;;;26.29;38.46;102440.66;5077680;27;45317;-72
2021/09/02 01:30:09;;;;;;;;;2.25;2.25;;;;;26.27;37.98;102435.50;5058030;27;48257;-71
2021/09/02 01:32:36;;;;;;;;;2.00;2.00;;;;;26.34;38.53;102438.31;5077712;27;45656;-72
2021/09/02 01:35:04;;;;;;;;;2.50;2.00;;;;;26.33;38.30;102427.81;5076163;27;45357;-72
2021/09/02 01:37:38;;;;;;;;;2.75;2.50;;;;;26.34;38.32;102427.63;5077192;27;45639;-72
2021/09/02 01:40:04;;;;;;;;;3.00;3.00;;;;;26.34;38.24;102424.97;5076736;27;45337;-72
2021/09/02 01:42:29;;;;;;;;;2.00;2.00;;;;;26.08;38.45;102383.34;5077241;27;45450;-72
2021/09/02 01:44:55;;;;;;;;;4.25;2.75;;;;;26.35;38.21;102426.63;5076204;28;45453;-72
2021/09/02 01:47:24;;;;;;;;;4.75;3.00;;;;;26.38;38.44;102433.47;5077206;27;45465;-72
2021/09/02 01:49:50;;;;;;;;;3.00;2.00;;;;;26.28;38.44;102415.00;5076812;27;46458;-72
2021/09/02 01:52:17;;;;;;;;;5.25;2.50;;;;;26.37;38.46;102429.97;5076915;27;45377;-71
2021/09/02 01:54:42;;;;;;;;;3.00;3.00;;;;;26.36;38.19;102430.16;5076775;27;45417;-71
2021/09/02 01:57:08;;;;;;;;;2.25;2.00;;;;;26.40;38.43;102434.97;5076006;27;45479;-72
2021/09/02 01:59:34;;;;;;;;;4.00;4.00;;;;;26.37;38.44;102424.63;5078071;27;45486;-72
2021/09/02 02:01:59;;;;;;;;;2.00;2.00;;;;;26.23;38.46;102394.13;5076933;27;45516;-72
2021/09/02 02:04:25;;;;;;;;;2.25;2.25;;;;;26.36;38.53;102424.81;5077068;27;45740;-72
2021/09/02 02:06:50;;;;;;;;;4.00;3.00;;;;;26.36;38.65;102420.28;5077018;27;45511;-71
2021/09/02 02:09:15;;;;;;;;;3.00;3.00;;;;;26.32;38.32;102413.63;5076100;27;45530;-72
2021/09/02 02:11:41;;;;;;;;;1.25;1.25;;;;;26.31;38.37;102401.28;5059881;28;45338;-72
2021/09/02 02:14:06;;;;;;;;;5.00;3.00;;;;;26.36;38.17;102406.13;5076895;27;45418;-72
2021/09/02 02:16:32;;;;;;;;;1.50;1.50;;;;;26.35;38.71;102405.28;5076712;27;45472;-72
2021/09/02 02:18:57;;;;;;;;;4.50;4.00;;;;;26.37;38.79;102402.44;5076837;27;45581;-71
2021/09/02 02:21:22;;;;;;;;;2.00;2.00;;;;;26.25;38.67;102384.16;5076749;27;45305;-72
2021/09/02 02:23:48;;;;;;;;;3.00;3.00;;;;;26.32;38.38;102400.28;5075869;28;45379;-72
2021/09/02 02:26:13;;;;;;;;;3.00;3.00;;;;;26.34;38.82;102400.94;5076735;27;45712;-72
2021/09/02 02:28:39;;;;;;;;;3.00;2.25;;;;;26.30;38.34;102396.97;5076374;27;46003;-72
2021/09/02 02:31:04;;;;;;;;;2.00;2.00;;;;;26.31;38.36;102392.47;5076657;27;45388;-72
2021/09/02 02:33:29;;;;;;;;;3.75;3.75;;;;;26.30;38.64;102394.31;5076832;27;45600;-71
2021/09/02 02:35:55;;;;;;;;;2.00;2.00;;;;;26.20;38.53;102375.84;5057662;28;45382;-71
2021/09/02 02:38:20;;;;;;;;;2.50;2.50;;;;;26.37;38.60;102394.44;5076055;27;45443;-72
2021/09/02 02:40:46;;;;;;;;;4.50;2.25;;;;;26.34;38.52;102392.94;5058257;28;45383;-72
2021/09/02 02:43:13;;;;;;;;;2.25;2.25;;;;;26.28;38.40;102381.13;5076338;27;45393;-72
2021/09/02 02:45:38;;;;;;;;;2.00;2.00;;;;;26.34;38.81;102381.44;5076241;27;45505;-72
2021/09/02 02:48:04;;;;;;;;;3.25;3.25;;;;;26.27;38.51;102366.13;5074797;27;46454;-72
2021/09/02 02:50:30;;;;;;;;;2.75;2.75;;;;;26.30;38.28;102378.28;5076513;27;45449;-72
2021/09/02 02:52:55;;;;;;;;;4.00;3.00;;;;;26.32;38.90;102378.94;5075892;27;45644;-72
2021/09/02 02:55:20;;;;;;;;;2.50;2.50;;;;;26.35;38.87;102386.63;5076253;27;45278;-71
2021/09/02 02:57:46;;;;;;;;;2.00;2.00;;;;;26.28;39.04;102378.44;5076030;27;45836;-71
2021/09/02 03:00:11;;;;;;;;;5.50;2.25;;;;;26.37;38.43;102389.09;5075360;27;45333;-72
2021/09/02 03:02:37;;;;;;;;;3.75;2.50;;;;;26.33;38.75;102382.44;5076201;27;45435;-71
2021/09/02 03:05:03;;;;;;;;;2.50;2.00;;;;;26.38;38.67;102390.78;5076204;27;48879;-72
2021/09/02 03:07:28;;;;;;;;;1.50;1.50;;;;;26.25;38.31;102364.63;5075574;27;45456;-71
2021/09/02 03:09:53;;;;;;;;;1.75;1.75;;;;;26.35;38.68;102377.78;5076076;27;45321;-72
2021/09/02 03:12:19;;;;;;;;;2.00;2.00;;;;;26.36;38.73;102380.25;5076484;27;45442;-72
2021/09/02 03:14:44;;;;;;;;;2.00;2.00;;;;;26.37;38.57;102384.59;5075460;28;45313;-72
2021/09/02 03:17:10;;;;;;;;;2.00;2.00;;;;;26.34;38.76;102376.94;5057415;28;45936;-71
2021/09/02 03:19:35;;;;;;;;;4.00;3.00;;;;;26.40;38.84;102378.91;5075720;27;45512;-72
2021/09/02 03:22:00;;;;;;;;;4.00;1.75;;;;;26.34;38.46;102362.75;5075649;27;45583;-72
2021/09/02 03:24:26;;;;;;;;;3.25;2.00;;;;;26.33;38.56;102369.94;5075984;27;45542;-71
2021/09/02 03:26:51;;;;;;;;;2.00;2.00;;;;;26.36;38.33;102358.09;5075137;28;45723;-72
2021/09/02 03:29:16;;;;;;;;;2.00;2.00;;;;;26.37;38.27;102357.91;5075707;27;45605;-71
2021/09/02 03:31:42;;;;;;;;;5.00;2.25;;;;;26.34;38.22;102347.59;5075927;27;45476;-71
2021/09/02 03:34:07;;;;;;;;;3.00;2.00;;;;;26.42;38.64;102365.41;5075626;27;45590;-72
2021/09/02 03:36:32;;;;;;;;;2.00;2.00;;;;;26.43;38.57;102368.91;5075531;27;45424;-72
2021/09/02 03:38:58;;;;;;;;;3.75;2.25;;;;;26.38;38.58;102364.09;5075028;28;45357;-71
2021/09/02 03:41:23;;;;;;;;;3.00;3.00;;;;;26.41;38.49;102372.56;5075717;27;45313;-72
2021/09/02 03:43:48;;;;;;;;;2.00;2.00;;;;;26.39;38.41;102368.41;5075432;27;45369;-71
2021/09/02 03:46:14;;;;;;;;;3.00;3.00;;;;;26.34;38.61;102360.09;5075439;27;46358;-71
2021/09/02 03:48:39;;;;;;;;;3.00;3.00;;;;;26.38;38.50;102356.09;5075377;27;45451;-72
2021/09/02 03:51:04;;;;;;;;;2.50;2.50;;;;;26.34;38.21;102344.06;5074818;27;45889;-72
2021/09/02 03:53:30;;;;;;;;;2.00;2.00;;;;;26.33;39.03;102353.09;5075819;27;45275;-72
2021/09/02 03:55:55;;;;;;;;;3.50;3.50;;;;;26.36;38.18;102353.56;5075172;27;46350;-72
2021/09/02 03:58:20;;;;;;;;;1.50;1.50;;;;;26.35;38.74;102356.44;5076222;27;45369;-71
2021/09/02 04:00:46;;;;;;;;;1.00;1.00;;;;;26.35;38.84;102351.09;5079080;27;45429;-71
2021/09/02 04:03:11;;;;;;;;;2.00;2.00;;;;;26.38;38.63;102348.91;5078011;27;45437;-71
2021/09/02 04:05:36;;;;;;;;;3.75;2.50;;;;;26.34;38.81;102338.75;5078754;27;46560;-71
2021/09/02 04:08:02;;;;;;;;;4.00;2.50;;;;;26.33;38.54;102337.09;5078542;27;45460;-71
2021/09/02 04:10:27;;;;;;;;;1.50;1.50;;;;;26.27;38.98;102322.59;5078761;27;45383;-71
2021/09/02 04:12:52;;;;;;;;;1.00;1.00;;;;;26.34;38.66;102339.56;5078903;27;45329;-71
2021/09/02 04:15:18;;;;;;;;;2.00;2.00;;;;;26.28;39.08;102334.94;5060345;27;48174;-71
2021/09/02 04:17:43;;;;;;;;;3.00;2.00;;;;;26.36;38.64;102350.09;5077655;28;45353;-72
2021/09/02 04:20:09;;;;;;;;;2.25;2.25;;;;;26.29;38.71;102342.78;5078781;27;45805;-71
2021/09/02 04:22:34;;;;;;;;;4.25;3.25;;;;;26.28;38.69;102348.28;5078808;27;45407;-71
2021/09/02 04:25:00;;;;;;;;;3.00;3.00;;;;;26.35;38.91;102357.25;5078403;27;45617;-71
2021/09/02 04:27:25;;;;;;;;;4.75;3.50;;;;;26.32;38.96;102354.94;5078778;27;45329;-71
2021/09/02 04:29:50;;;;;;;;;2.00;2.00;;;;;26.34;38.53;102360.91;5077997;28;45373;-71
2021/09/02 04:32:16;;;;;;;;;3.00;2.00;;;;;26.36;38.40;102366.91;5078612;27;45396;-71
2021/09/02 04:34:41;;;;;;;;;2.00;2.00;;;;;26.36;38.68;102360.78;5078268;27;47217;-71
2021/09/02 04:37:07;;;;;;;;;2.50;2.50;;;;;26.32;38.54;102354.09;5078283;27;45420;-71
2021/09/02 04:39:33;;;;;;;;;4.00;2.25;;;;;26.31;38.88;102355.94;5078647;27;45349;-71
2021/09/02 04:41:58;;;;;;;;;3.50;3.00;;;;;26.39;38.69;102353.22;5077561;28;45273;-72
2021/09/02 04:44:24;;;;;;;;;2.00;2.00;;;;;26.34;38.58;102342.25;5077966;27;45642;-72
2021/09/02 04:46:49;;;;;;;;;2.50;2.50;;;;;26.38;38.50;102340.06;5077459;27;45518;-72
2021/09/02 04:49:14;;;;;;;;;2.00;2.00;;;;;26.35;38.52;102333.25;5059917;28;45298;-71
2021/09/02 04:51:40;;;;;;;;;1.50;1.50;;;;;26.33;38.49;102329.09;5078273;27;45334;-72
2021/09/02 04:54:05;;;;;;;;;2.25;2.00;;;;;26.36;38.20;102334.88;5076996;27;45456;-72
2021/09/02 04:56:30;;;;;;;;;2.00;2.00;;;;;26.24;38.56;102304.28;5077989;27;45750;-72
2021/09/02 04:58:56;;;;;;;;;2.75;2.75;;;;;26.40;38.76;102332.72;5077810;27;45766;-72
2021/09/02 05:01:21;;;;;;;;;4.50;2.00;;;;;26.36;38.28;102332.22;5077603;27;45492;-71
2021/09/02 05:03:47;;;;;;;;;1.50;1.50;;;;;26.34;38.54;102325.41;5077989;27;45539;-72
2021/09/02 05:06:12;;;;;;;;;2.50;2.50;;;;;26.33;38.76;102318.41;5077046;27;45379;-72
2021/09/02 05:08:37;;;;;;;;;3.00;2.00;;;;;26.39;38.95;102331.03;5077777;27;45441;-72
2021/09/02 05:11:03;;;;;;;;;4.00;4.00;;;;;26.32;38.44;102322.91;5077546;27;45589;-72
2021/09/02 05:13:28;;;;;;;;;4.00;2.50;;;;;26.37;38.36;102349.06;5077331;27;47034;-72
2021/09/02 05:15:53;;;;;;;;;4.25;4.25;;;;;26.36;38.10;102353.56;5077275;27;45582;-72
2021/09/02 05:18:18;;;;;;;;;7.00;6.75;;;;;26.30;37.75;102348.94;5077780;27;45220;-73
2021/09/02 05:20:44;;;;;;;;;6.00;6.00;;;;;26.22;37.42;102352.47;5077011;28;45277;-74
2021/09/02 05:23:09;;;;;;;;;7.75;7.00;;;;;26.13;37.06;102359.66;5077355;27;46158;-72
2021/09/02 05:25:34;;;;;;;;;12.75;11.50;;;;;26.02;37.34;102360.03;5077464;27;45639;-72
2021/09/02 05:28:00;;;;;;;;;10.50;9.00;;;;;25.92;37.18;102360.22;5076659;27;45364;-71
2021/09/02 05:30:25;;;;;;;;;13.00;8.75;;;;;25.92;36.64;102376.22;5076043;27;45423;-73
2021/09/02 05:32:51;;;;;;;;;10.50;8.00;;;;;25.77;36.89;102360.91;5074162;28;45743;-72
2021/09/02 05:35:17;;;;;;;;;11.00;10.00;;;;;25.76;36.75;102364.59;5076073;27;45369;-72
2021/09/02 05:37:43;;;;;;;;;9.50;8.50;;;;;25.68;37.04;102356.56;5076426;27;45438;-72
2021/09/02 05:40:09;;;;;;;;;9.75;7.50;;;;;25.60;36.96;102354.75;5076994;27;45522;-72
2021/09/02 05:42:35;;;;;;;;;12.25;9.50;;;;;25.56;36.86;102356.91;5077064;27;46350;-72
2021/09/02 05:45:00;;;;;;;;;12.00;11.00;;;;;25.62;36.66;102364.25;5070310;28;45520;-72
2021/09/02 05:47:26;;;;;;;;;11.00;8.75;;;;;25.57;36.69;102355.91;5077785;27;45411;-72
2021/09/02 05:49:51;;;;;;;;;11.00;9.50;;;;;25.59;36.61;102358.41;5077117;27;45383;-72
2021/09/02 05:52:17;;;;;;;;;13.00;10.00;;;;;25.54;36.28;102355.41;5076609;27;46376;-72
2021/09/02 05:54:42;;;;;;;;;10.75;10.25;;;;;25.60;36.28;102360.09;5077031;27;45441;-72
2021/09/02 05:57:07;;;;;;;;;14.00;10.00;;;;;25.51;36.14;102346.75;5055283;27;45843;-73
2021/09/02 05:59:33;;;;;;;;;8.75;7.75;;;;;25.52;36.33;102353.75;5076659;27;45278;-74
2021/09/02 06:01:58;;;;;;;;;8.75;8.75;;;;;25.56;36.26;102343.59;5076708;27;45577;-73
2021/09/02 06:04:23;;;;;;;;;12.50;10.00;;;;;25.57;36.11;102345.25;5076707;27;45498;-71
2021/09/02 06:06:49;;;;;;;;;10.25;9.25;;;;;25.66;36.11;102359.38;5076879;27;45459;-73
2021/09/02 06:09:14;;;;;;;;;9.50;7.50;;;;;25.63;36.07;102349.91;5058421;27;45424;-73
2021/09/02 06:11:39;;;;;;;;;9.75;7.75;;;;;25.70;36.14;102343.91;5076322;27;46116;-73
2021/09/02 06:14:05;;;;;;;;;9.75;7.50;;;;;25.82;36.34;102347.91;5076068;27;45488;-72
2021/09/02 06:16:30;;;;;;;;;11.00;7.00;;;;;25.93;36.55;102365.38;5076828;27;46039;-73
2021/09/02 06:18:55;;;;;;;;;10.25;7.75;;;;;25.99;36.29;102347.88;5076817;27;45373;-73
2021/09/02 06:21:21;;;;;;;;;5.50;5.50;;;;;26.16;36.73;102361.16;5075955;27;46406;-73
2021/09/02 06:23:47;;;;;;;;;7.00;7.00;;;;;26.24;36.35;102357.63;5075764;28;45453;-73
2021/09/02 06:26:13;;;;;;;;;8.25;6.75;;;;;26.21;36.81;102342.78;5076511;27;45382;-73
2021/09/02 06:28:38;;;;;;;;;5.75;4.75;;;;;26.41;36.06;102359.22;5076227;27;45399;-73
2021/09/02 06:31:03;;;;;;;;;7.25;7.25;;;;;26.53;35.93;102369.56;5058038;28;47037;-74
2021/09/02 06:33:29;;;;;;;;;6.00;6.00;;;;;26.61;35.85;102358.84;5076527;27;45556;-73
2021/09/02 06:35:56;;;;;;;;;7.25;7.25;;;;;26.71;36.07;102363.13;5075707;28;45971;-73
2021/09/02 06:38:21;;;;;;;;;5.75;5.25;;;;;26.84;36.13;102374.06;5076511;27;45584;-73
2021/09/02 06:40:46;;;;;;;;;6.50;6.00;;;;;26.85;35.99;102342.84;5076113;27;45375;-73
2021/09/02 06:43:12;;;;;;;;;6.00;6.00;;;;;27.02;36.15;102364.94;5075925;27;45531;-73
2021/09/02 06:45:37;;;;;;;;;6.50;5.00;;;;;27.06;36.18;102349.41;5076340;27;45431;-73
2021/09/02 06:48:03;;;;;;;;;7.75;6.00;;;;;27.14;36.25;102360.03;5075767;28;45408;-73
2021/09/02 06:50:29;;;;;;;;;6.00;5.00;;;;;27.20;36.17;102353.13;5076358;27;45535;-72
2021/09/02 06:52:54;;;;;;;;;6.75;5.00;;;;;27.33;36.02;102362.38;5076210;27;45561;-73
2021/09/02 06:55:19;;;;;;;;;6.00;5.25;;;;;27.41;35.82;102365.00;5076052;27;45313;-73
2021/09/02 06:57:45;;;;;;;;;4.25;4.25;;;;;27.37;36.07;102353.84;5075995;27;45405;-73
2021/09/02 07:00:13;;;;;;;;;3.50;3.50;;;;;27.46;35.44;102359.94;5075163;27;46255;-73
2021/09/02 07:02:38;;;;;;;;;7.25;5.75;;;;;27.47;35.11;102347.41;5076859;27;45506;-73
2021/09/02 07:05:05;;;;;;;;;4.50;4.50;;;;;27.59;35.87;102367.34;5076046;27;45499;-74
2021/09/02 07:07:31;;;;;;;;;7.75;7.75;;;;;27.56;35.29;102354.34;5076245;27;45452;-73
2021/09/02 07:09:56;;;;;;;;;8.25;6.00;;;;;27.62;35.72;102372.34;5075754;27;45498;-73
2021/09/02 07:12:22;;;;;;;;;4.00;4.00;;;;;27.66;35.35;102371.97;5075601;27;45461;-73
2021/09/02 07:14:47;;;;;;;;;6.00;6.00;;;;;27.67;35.88;102355.75;5075439;28;45356;-73
2021/09/02 07:17:12;;;;;;;;;6.75;5.00;;;;;27.73;35.83;102386.28;5075755;27;45514;-73
2021/09/02 07:19:38;;;;;;;;;5.50;4.25;;;;;27.74;35.88;102372.72;5075538;27;45279;-73
2021/09/02 07:22:04;;;;;;;;;4.25;4.25;;;;;27.67;35.58;102357.56;5075648;27;45557;-73
2021/09/02 07:24:29;;;;;;;;;7.25;7.00;;;;;27.61;35.05;102351.13;5075856;27;45416;-73
2021/09/02 07:26:55;;;;;;;;;4.75;4.75;;;;;27.63;35.47;102347.28;5074933;28;45456;-73
2021/09/02 07:29:21;;;;;;;;;6.50;5.50;;;;;27.72;35.34;102363.22;5075381;27;46415;-73
2021/09/02 07:31:47;;;;;;;;;7.75;6.00;;;;;27.69;35.43;102350.22;5075610;27;45450;-73
2021/09/02 07:34:12;;;;;;;;;5.75;5.50;;;;;27.73;35.25;102364.88;5077876;27;45372;-73
2021/09/02 07:36:38;;;;;;;;;4.25;4.00;;;;;27.79;35.86;102374.03;5079262;27;45380;-73
2021/09/02 07:39:05;;;;;;;;;6.25;6.00;;;;;27.78;35.79;102372.34;5078209;28;45367;-73
2021/09/02 07:41:31;;;;;;;;;5.00;5.00;;;;;27.79;35.85;102366.81;5080033;27;45325;-73
2021/09/02 07:43:57;;;;;;;;;6.25;5.25;;;;;27.81;35.18;102380.88;5078814;27;45234;-74
2021/09/02 07:46:23;;;;;;;;;5.25;4.75;;;;;27.60;35.77;102325.41;5079054;27;45259;-73
2021/09/02 07:48:48;;;;;;;;;4.75;4.00;;;;;27.81;35.25;102372.84;5078727;27;46600;-73
2021/09/02 07:51:16;;;;;;;;;4.75;4.75;;;;;27.84;35.80;102360.97;5078412;27;45651;-73
2021/09/02 07:53:42;;;;;;;;;5.00;4.25;;;;;27.72;35.82;102345.31;5078480;27;45518;-73
2021/09/02 07:56:07;;;;;;;;;4.25;4.25;;;;;27.69;35.36;102337.66;5060073;28;45588;-73
2021/09/02 07:58:33;;;;;;;;;6.00;3.75;;;;;27.85;35.41;102362.59;5078739;27;46534;-73
2021/09/02 08:00:59;;;;;;;;;6.00;6.00;;;;;27.44;35.97;102321.03;5079067;27;45484;-73
2021/09/02 08:03:24;;;;;;;;;6.25;5.00;;;;;27.46;35.82;102319.84;5078845;27;45438;-73
2021/09/02 08:05:50;;;;;;;;;7.25;5.00;;;;;27.73;35.85;102341.66;5078098;28;45496;-73
2021/09/02 08:08:18;;;;;;;;;5.50;5.50;;;;;27.73;35.72;102338.13;5078508;27;46187;-73
2021/09/02 08:10:45;;;;;;;;;6.50;5.50;;;;;27.84;35.55;102352.94;5078262;27;45527;-73
2021/09/02 08:13:11;;;;;;;;;4.00;4.00;;;;;27.89;35.21;102363.09;5078558;27;45380;-73
2021/09/02 08:15:37;;;;;;;;;6.25;4.50;;;;;27.90;35.41;102359.38;5078828;27;45339;-73
2021/09/02 08:18:03;;;;;;;;;5.00;5.00;;;;;27.93;36.02;102369.72;5077909;28;45645;-73
2021/09/02 08:20:29;;;;;;;;;4.00;4.00;;;;;27.93;35.43;102367.03;5078432;27;48369;-73
2021/09/02 08:28:28;;;;;;;;;5.75;5.75;;;;;27.84;35.89;102335.03;6122315;22;47203;-72
2021/09/02 08:30:53;;;;;;;;;7.00;5.00;;;;;27.96;35.93;102345.28;5098428;22;45393;-72
2021/09/02 08:33:18;;;;;;;;;7.00;5.25;;;;;27.99;35.71;102352.94;5037176;28;45431;-72
2021/09/02 08:35:44;;;;;;;;;5.75;5.25;;;;;27.85;35.36;102330.50;5038438;28;45483;-72
2021/09/02 08:38:10;;;;;;;;;7.50;5.75;;;;;27.99;35.72;102360.97;5039709;28;46356;-72
2021/09/02 08:40:38;;;;;;;;;5.25;4.50;;;;;28.00;35.58;102351.91;5039439;28;45404;-73
2021/09/02 08:43:04;;;;;;;;;6.25;6.25;;;;;27.99;35.37;102358.28;5040093;28;45424;-72
2021/09/02 08:45:31;;;;;;;;;7.00;5.50;;;;;27.97;36.14;102346.94;5039000;28;45389;-72
2021/09/02 08:48:00;;;;;;;;;7.25;6.00;;;;;28.01;35.58;102369.63;5052879;28;47590;-72
2021/09/02 08:50:27;;;;;;;;;7.25;5.75;;;;;28.02;35.88;102365.94;5042397;28;45361;-72
2021/09/02 08:52:53;;;;;;;;;7.00;7.00;;;;;28.00;35.83;102362.59;5042213;28;45459;-72
2021/09/02 08:55:19;;;;;;;;;8.50;6.75;;;;;27.88;35.98;102335.50;5042103;28;45575;-72
2021/09/02 08:57:49;;;;;;;;;8.25;7.25;;;;;28.03;35.88;102362.25;5039893;28;45519;-73
2021/09/02 09:00:15;;;;;;;;;6.25;6.25;;;;;28.01;35.45;102350.06;5039024;28;45489;-75
2021/09/02 09:02:47;;;;;;;;;10.00;7.75;;;;;27.95;35.33;102331.06;5041189;28;45425;-75
2021/09/02 09:05:15;;;;;;;;;5.75;5.75;;;;;28.02;36.00;102333.00;5040843;28;45594;-75
2021/09/02 09:07:45;;;;;;;;;9.25;6.00;;;;;28.02;35.76;102341.03;5041963;28;46461;-75
2021/09/02 09:10:15;;;;;;;;;7.00;6.00;;;;;28.06;35.33;102334.28;5041863;28;45382;-75
2021/09/02 09:12:44;;;;;;;;;7.50;6.75;;;;;28.03;35.99;102329.31;5038842;28;45455;-75
2021/09/02 09:15:34;;;;;;;;;8.25;7.75;;;;;28.07;36.08;102352.00;5039232;28;45396;-75
2021/09/02 09:18:13;;;;;;;;;10.00;7.25;;;;;28.01;35.30;102320.63;5052556;28;45277;-75
2021/09/02 09:20:40;;;;;;;;;7.50;6.50;;;;;28.01;35.55;102324.16;5038301;28;45388;-75
2021/09/02 09:23:05;;;;;;;;;6.75;5.25;;;;;27.98;35.34;102311.16;5038841;28;45403;-75
2021/09/02 09:25:30;;;;;;;;;8.25;7.25;;;;;28.01;35.84;102318.81;5038799;28;45283;-75
2021/09/02 09:28:00;;;;;;;;;10.00;9.00;;;;;28.07;35.34;102333.28;5039215;28;45325;-75
2021/09/02 09:30:29;;;;;;;;;8.25;7.00;;;;;28.06;36.12;102321.75;5037762;28;45435;-75
2021/09/02 09:32:58;;;;;;;;;8.25;8.25;;;;;28.04;35.61;102309.56;5036460;28;45399;-75
2021/09/02 09:35:27;;;;;;;;;8.00;8.00;;;;;28.06;35.45;102326.25;5038687;28;45721;-75
2021/09/02 09:38:06;;;;;;;;;6.50;5.50;;;;;28.01;36.07;102320.63;5038491;28;46518;-75
2021/09/02 09:40:33;;;;;;;;;9.75;7.75;;;;;27.96;35.32;102313.19;5038380;28;45609;-75
2021/09/02 09:43:05;;;;;;;;;7.25;5.75;;;;;28.02;35.48;102316.97;5038342;28;45510;-76
2021/09/02 09:45:48;;;;;;;;;6.75;6.75;;;;;28.03;35.83;102315.94;5037060;28;45349;-75
2021/09/02 09:48:16;;;;;;;;;6.75;6.75;;;;;28.03;35.50;102310.56;5052947;28;46522;-74
2021/09/02 09:50:42;;;;;;;;;9.00;6.25;;;;;27.94;35.78;102291.13;5040301;28;45404;-75
2021/09/02 09:53:25;;;;;;;;;9.00;6.25;;;;;27.95;35.89;102296.28;5041266;28;45482;-75
2021/09/02 09:55:52;;;;;;;;;6.75;6.00;;;;;27.89;35.50;102286.34;5040290;28;45386;-75
2021/09/02 09:58:20;;;;;;;;;8.25;7.00;;;;;27.99;35.61;102310.13;5040429;28;46279;-75
2021/09/02 10:00:46;;;;;;;;;8.25;7.50;;;;;27.92;35.52;102279.81;5038978;28;45373;-72
2021/09/02 10:03:12;;;;;;;;;9.75;9.25;;;;;27.89;35.79;102277.50;5039087;28;45440;-74
2021/09/02 10:05:38;;;;;;;;;7.50;7.00;;;;;27.91;35.51;102283.47;5040919;28;45422;-75
2021/09/02 10:08:04;;;;;;;;;10.75;10.75;;;;;27.94;35.58;102289.31;5040719;28;46433;-75
2021/09/02 10:10:30;;;;;;;;;9.00;8.00;;;;;27.95;36.13;102280.25;5041175;28;45480;-75
2021/09/02 10:12:56;;;;;;;;;7.50;7.50;;;;;27.95;35.51;102284.75;5039819;28;45582;-75
2021/09/02 10:15:21;;;;;;;;;7.00;6.00;;;;;27.87;36.30;102283.00;5037407;28;45392;-75
2021/09/02 10:17:48;;;;;;;;;9.50;8.75;;;;;27.91;35.79;102265.59;5038692;28;47495;-75
2021/09/02 10:20:24;;;;;;;;;9.25;6.00;;;;;27.89;35.62;102267.63;5041002;28;45723;-75
2021/09/02 10:22:54;;;;;;;;;7.50;7.50;;;;;27.88;35.81;102263.28;5040770;28;45236;-75
2021/09/02 10:28:08;;;;;;;;;7.75;7.25;;;;;27.92;36.04;102277.94;5039488;28;45446;-75
2021/09/02 10:30:47;;;;;;;;;8.00;8.00;;;;;27.90;36.20;102276.47;5037963;28;45286;-75
2021/09/02 10:33:38;;;;;;;;;8.00;7.25;;;;;27.87;36.24;102280.34;5034811;28;45395;-75
2021/09/02 10:36:15;;;;;;;;;8.00;7.00;;;;;27.89;36.31;102280.16;5029187;28;45525;-75
2021/09/02 10:38:51;;;;;;;;;8.00;8.00;;;;;27.86;35.75;102265.31;5037397;28;45518;-75
2021/09/02 10:41:39;;;;;;;;;7.75;7.75;;;;;27.85;35.87;102259.13;5037557;28;45542;-75
2021/09/02 10:44:09;;;;;;;;;6.50;6.50;;;;;27.69;36.04;102262.00;5037821;28;45368;-75
2021/09/02 10:46:44;;;;;;;;;8.50;8.50;;;;;27.83;36.41;102271.03;5037854;28;45497;-75
2021/09/02 10:49:14;;;;;;;;;12.00;10.00;;;;;27.65;35.96;102239.31;5036177;28;47100;-75
2021/09/02 10:51:41;;;;;;;;;9.00;9.00;;;;;27.80;36.48;102271.41;5037824;28;45462;-72
2021/09/02 10:54:09;;;;;;;;;8.00;8.00;;;;;27.80;35.79;102276.75;5035837;28;45262;-72
2021/09/02 10:57:09;;;;;;;;;9.50;8.50;;;;;27.77;36.32;102261.03;5037011;28;45208;-75
2021/09/02 10:59:51;;;;;;;;;11.75;8.25;;;;;27.77;36.02;102253.03;5036875;28;46196;-75
2021/09/02 11:02:16;;;;;;;;;10.50;8.00;;;;;27.76;36.72;102256.72;5037474;28;45290;-75
2021/09/02 11:04:43;;;;;;;;;8.50;8.50;;;;;27.65;36.03;102250.84;5040154;28;45650;-75
2021/09/02 11:07:09;;;;;;;;;10.00;8.25;;;;;27.68;36.26;102257.66;5041135;28;45496;-75
2021/09/02 11:09:42;;;;;;;;;7.75;7.00;;;;;27.71;36.68;102260.75;5039816;28;45668;-75
2021/09/02 11:12:13;;;;;;;;;10.25;9.50;;;;;27.70;36.19;102260.97;5041521;28;45482;-75
2021/09/02 11:14:42;;;;;;;;;8.75;8.75;;;;;27.64;36.50;102254.50;5043122;28;45412;-75
2021/09/02 11:17:08;;;;;;;;;6.50;6.50;;;;;27.66;36.23;102252.50;5043777;28;45592;-75
2021/09/02 11:19:36;;;;;;;;;9.25;8.00;;;;;27.66;36.35;102249.00;5043539;28;45366;-75
2021/09/02 11:22:06;;;;;;;;;8.00;8.00;;;;;27.58;36.74;102233.88;5043632;28;45554;-75
2021/09/02 11:24:41;;;;;;;;;11.25;9.00;;;;;27.63;36.59;102242.16;5040863;28;45473;-74
2021/09/02 11:27:07;;;;;;;;;8.00;8.00;;;;;27.58;36.40;102223.19;5039055;28;45504;-74
2021/09/02 11:29:33;;;;;;;;;9.25;7.00;;;;;27.59;36.76;102246.22;5039984;28;45502;-74
2021/09/02 11:32:05;;;;;;;;;13.50;11.00;;;;;27.61;36.33;102250.34;5040663;28;45459;-73